sensor_id;sensor_type;location;lat;lon;timestamp;temperature;humidity
54846;DHT22;53889;50.084;8.646;2022-08-21T00:01:14;22.00;74.90
54846;DHT22;53889;50.084;8.646;2022-08-21T00:03:43;22.00;75.00
54846;DHT22;53889;50.084;8.646;2022-08-21T00:06:10;22.00;75.00
54846;DHT22;53889;50.084;8.646;2022-08-21T00:08:37;21.90;75.10
54846;DHT22;53889;50.084;8.646;2022-08-21T00:11:05;22.00;75.00
54846;DHT22;53889;50.084;8.646;2022-08-21T00:13:33;21.90;75.50
54846;DHT22;53889;50.084;8.646;2022-08-21T00:15:59;21.80;74.90
54846;DHT22;53889;50.084;8.646;2022-08-21T00:18:26;21.60;75.50
54846;DHT22;53889;50.084;8.646;2022-08-21T00:20:54;21.50;75.90
54846;DHT22;53889;50.084;8.646;2022-08-21T00:23:21;21.40;76.80
54846;DHT22;53889;50.084;8.646;2022-08-21T00:25:48;21.20;76.80
54846;DHT22;53889;50.084;8.646;2022-08-21T00:28:15;21.00;77.40
54846;DHT22;53889;50.084;8.646;2022-08-21T00:30:43;20.90;78.00
54846;DHT22;53889;50.084;8.646;2022-08-21T00:33:11;20.70;78.10
54846;DHT22;53889;50.084;8.646;2022-08-21T00:35:40;20.60;78.60
54846;DHT22;53889;50.084;8.646;2022-08-21T00:38:10;20.60;78.70
54846;DHT22;53889;50.084;8.646;2022-08-21T00:40:48;20.60;78.80
54846;DHT22;53889;50.084;8.646;2022-08-21T00:43:17;20.80;79.10
54846;DHT22;53889;50.084;8.646;2022-08-21T00:45:44;20.60;79.10
54846;DHT22;53889;50.084;8.646;2022-08-21T00:48:11;20.50;79.40
54846;DHT22;53889;50.084;8.646;2022-08-21T00:50:44;20.30;79.80
54846;DHT22;53889;50.084;8.646;2022-08-21T00:53:14;20.20;80.40
54846;DHT22;53889;50.084;8.646;2022-08-21T00:55:41;22.30;82.40
54846;DHT22;53889;50.084;8.646;2022-08-21T00:58:10;19.80;81.30
54846;DHT22;53889;50.084;8.646;2022-08-21T01:00:40;19.50;82.00
54846;DHT22;53889;50.084;8.646;2022-08-21T01:03:10;19.20;83.30
54846;DHT22;53889;50.084;8.646;2022-08-21T01:05:38;19.20;83.70
54846;DHT22;53889;50.084;8.646;2022-08-21T01:08:05;19.20;83.40
54846;DHT22;53889;50.084;8.646;2022-08-21T01:10:34;19.20;83.50
54846;DHT22;53889;50.084;8.646;2022-08-21T01:13:03;18.90;84.20
54846;DHT22;53889;50.084;8.646;2022-08-21T01:15:34;18.90;84.60
54846;DHT22;53889;50.084;8.646;2022-08-21T01:18:03;18.80;84.80
54846;DHT22;53889;50.084;8.646;2022-08-21T01:20:31;18.80;85.00
54846;DHT22;53889;50.084;8.646;2022-08-21T01:22:59;18.70;85.50
54846;DHT22;53889;50.084;8.646;2022-08-21T01:25:26;18.60;86.10
54846;DHT22;53889;50.084;8.646;2022-08-21T01:27:53;18.50;86.40
54846;DHT22;53889;50.084;8.646;2022-08-21T01:30:23;18.40;86.60
54846;DHT22;53889;50.084;8.646;2022-08-21T01:32:51;18.40;87.10
54846;DHT22;53889;50.084;8.646;2022-08-21T01:35:20;18.40;87.10
54846;DHT22;53889;50.084;8.646;2022-08-21T01:37:48;18.40;87.50
54846;DHT22;53889;50.084;8.646;2022-08-21T01:40:16;18.40;87.30
54846;DHT22;53889;50.084;8.646;2022-08-21T01:42:44;18.30;87.70
54846;DHT22;53889;50.084;8.646;2022-08-21T01:45:12;18.20;88.00
54846;DHT22;53889;50.084;8.646;2022-08-21T01:47:39;18.20;88.50
54846;DHT22;53889;50.084;8.646;2022-08-21T01:50:08;18.10;88.80
54846;DHT22;53889;50.084;8.646;2022-08-21T01:52:35;18.20;88.70
54846;DHT22;53889;50.084;8.646;2022-08-21T01:55:03;18.20;88.60
54846;DHT22;53889;50.084;8.646;2022-08-21T01:57:31;18.30;88.80
54846;DHT22;53889;50.084;8.646;2022-08-21T01:59:59;18.40;88.30
54846;DHT22;53889;50.084;8.646;2022-08-21T02:02:26;18.30;88.40
54846;DHT22;53889;50.084;8.646;2022-08-21T02:04:53;18.20;88.80
54846;DHT22;53889;50.084;8.646;2022-08-21T02:07:20;18.10;89.40
54846;DHT22;53889;50.084;8.646;2022-08-21T02:09:46;18.20;89.50
54846;DHT22;53889;50.084;8.646;2022-08-21T02:12:13;18.20;89.50
54846;DHT22;53889;50.084;8.646;2022-08-21T02:14:41;18.10;89.80
54846;DHT22;53889;50.084;8.646;2022-08-21T02:17:08;18.10;90.00
54846;DHT22;53889;50.084;8.646;2022-08-21T02:19:35;18.10;90.10
54846;DHT22;53889;50.084;8.646;2022-08-21T02:22:02;18.00;90.30
54846;DHT22;53889;50.084;8.646;2022-08-21T02:24:28;18.00;90.80
54846;DHT22;53889;50.084;8.646;2022-08-21T02:26:55;18.10;90.50
54846;DHT22;53889;50.084;8.646;2022-08-21T02:29:22;18.20;90.30
54846;DHT22;53889;50.084;8.646;2022-08-21T02:31:50;18.30;90.10
54846;DHT22;53889;50.084;8.646;2022-08-21T02:34:16;18.30;90.10
54846;DHT22;53889;50.084;8.646;2022-08-21T02:36:43;18.30;90.10
54846;DHT22;53889;50.084;8.646;2022-08-21T02:39:10;18.30;90.20
54846;DHT22;53889;50.084;8.646;2022-08-21T02:41:36;18.20;90.30
54846;DHT22;53889;50.084;8.646;2022-08-21T02:44:03;18.10;90.50
54846;DHT22;53889;50.084;8.646;2022-08-21T02:46:30;18.00;90.70
54846;DHT22;53889;50.084;8.646;2022-08-21T02:48:58;17.80;91.10
54846;DHT22;53889;50.084;8.646;2022-08-21T02:51:25;17.60;91.70
54846;DHT22;53889;50.084;8.646;2022-08-21T02:53:52;17.40;92.20
54846;DHT22;53889;50.084;8.646;2022-08-21T02:56:20;17.30;92.80
54846;DHT22;53889;50.084;8.646;2022-08-21T02:58:49;17.30;93.10
54846;DHT22;53889;50.084;8.646;2022-08-21T03:01:17;17.30;93.30
54846;DHT22;53889;50.084;8.646;2022-08-21T03:03:46;17.40;93.30
54846;DHT22;53889;50.084;8.646;2022-08-21T03:06:17;17.50;93.10
54846;DHT22;53889;50.084;8.646;2022-08-21T03:08:44;17.50;93.20
54846;DHT22;53889;50.084;8.646;2022-08-21T03:11:12;17.50;93.30
54846;DHT22;53889;50.084;8.646;2022-08-21T03:13:39;17.30;93.70
54846;DHT22;53889;50.084;8.646;2022-08-21T03:16:06;17.10;94.40
54846;DHT22;53889;50.084;8.646;2022-08-21T03:18:34;16.90;94.90
54846;DHT22;53889;50.084;8.646;2022-08-21T03:21:01;16.90;95.60
54846;DHT22;53889;50.084;8.646;2022-08-21T03:23:29;16.90;95.80
54846;DHT22;53889;50.084;8.646;2022-08-21T03:25:56;16.80;96.20
54846;DHT22;53889;50.084;8.646;2022-08-21T03:28:23;16.80;96.30
54846;DHT22;53889;50.084;8.646;2022-08-21T03:30:51;16.70;96.60
54846;DHT22;53889;50.084;8.646;2022-08-21T03:33:19;16.70;97.00
54846;DHT22;53889;50.084;8.646;2022-08-21T03:35:50;16.70;97.20
54846;DHT22;53889;50.084;8.646;2022-08-21T03:38:17;16.70;97.50
54846;DHT22;53889;50.084;8.646;2022-08-21T03:40:46;16.60;97.80
54846;DHT22;53889;50.084;8.646;2022-08-21T03:43:13;16.60;98.00
54846;DHT22;53889;50.084;8.646;2022-08-21T03:45:40;16.50;98.40
54846;DHT22;53889;50.084;8.646;2022-08-21T03:48:08;16.40;99.00
54846;DHT22;53889;50.084;8.646;2022-08-21T03:50:39;16.50;99.00
54846;DHT22;53889;50.084;8.646;2022-08-21T03:53:06;16.70;98.80
54846;DHT22;53889;50.084;8.646;2022-08-21T03:55:33;16.70;98.50
54846;DHT22;53889;50.084;8.646;2022-08-21T03:58:01;16.80;98.40
54846;DHT22;53889;50.084;8.646;2022-08-21T04:00:28;18.90;98.60
54846;DHT22;53889;50.084;8.646;2022-08-21T04:02:55;16.80;98.30
54846;DHT22;53889;50.084;8.646;2022-08-21T04:05:21;16.50;99.10
54846;DHT22;53889;50.084;8.646;2022-08-21T04:07:54;16.50;99.40
54846;DHT22;53889;50.084;8.646;2022-08-21T04:10:21;16.50;99.20
54846;DHT22;53889;50.084;8.646;2022-08-21T04:12:49;16.50;99.40
54846;DHT22;53889;50.084;8.646;2022-08-21T04:15:17;16.50;99.50
54846;DHT22;53889;50.084;8.646;2022-08-21T04:17:44;16.60;99.40
54846;DHT22;53889;50.084;8.646;2022-08-21T04:20:10;16.40;99.60
54846;DHT22;53889;50.084;8.646;2022-08-21T04:22:38;16.40;99.80
54846;DHT22;53889;50.084;8.646;2022-08-21T04:25:05;16.40;99.90
54846;DHT22;53889;50.084;8.646;2022-08-21T04:27:33;16.40;99.90
54846;DHT22;53889;50.084;8.646;2022-08-21T04:29:59;16.40;99.90
54846;DHT22;53889;50.084;8.646;2022-08-21T04:32:27;16.40;99.90
54846;DHT22;53889;50.084;8.646;2022-08-21T04:34:58;16.50;99.90
54846;DHT22;53889;50.084;8.646;2022-08-21T04:37:26;16.60;99.80
54846;DHT22;53889;50.084;8.646;2022-08-21T04:39:53;16.60;99.80
54846;DHT22;53889;50.084;8.646;2022-08-21T04:42:21;16.60;99.70
54846;DHT22;53889;50.084;8.646;2022-08-21T04:44:49;16.60;99.60
54846;DHT22;53889;50.084;8.646;2022-08-21T04:47:15;16.50;99.90
54846;DHT22;53889;50.084;8.646;2022-08-21T04:49:43;16.50;99.90
54846;DHT22;53889;50.084;8.646;2022-08-21T04:52:11;16.50;99.90
54846;DHT22;53889;50.084;8.646;2022-08-21T04:54:40;16.60;99.90
54846;DHT22;53889;50.084;8.646;2022-08-21T04:57:09;16.60;99.90
54846;DHT22;53889;50.084;8.646;2022-08-21T04:59:39;16.60;99.80
54846;DHT22;53889;50.084;8.646;2022-08-21T05:02:08;16.60;99.90
54846;DHT22;53889;50.084;8.646;2022-08-21T05:04:37;16.60;99.90
54846;DHT22;53889;50.084;8.646;2022-08-21T05:07:12;16.60;99.90
54846;DHT22;53889;50.084;8.646;2022-08-21T05:09:39;16.60;99.90
54846;DHT22;53889;50.084;8.646;2022-08-21T05:12:06;16.70;99.90
54846;DHT22;53889;50.084;8.646;2022-08-21T05:14:33;17.10;99.70
54846;DHT22;53889;50.084;8.646;2022-08-21T05:17:00;17.40;98.80
54846;DHT22;53889;50.084;8.646;2022-08-21T05:19:27;17.70;98.20
54846;DHT22;53889;50.084;8.646;2022-08-21T05:21:54;18.00;97.30
54846;DHT22;53889;50.084;8.646;2022-08-21T05:24:22;18.20;96.70
54846;DHT22;53889;50.084;8.646;2022-08-21T05:26:48;18.30;96.20
54846;DHT22;53889;50.084;8.646;2022-08-21T05:29:16;18.10;96.60
54846;DHT22;53889;50.084;8.646;2022-08-21T05:31:43;17.90;97.00
54846;DHT22;53889;50.084;8.646;2022-08-21T05:34:10;17.80;97.10
54846;DHT22;53889;50.084;8.646;2022-08-21T05:36:37;17.70;97.40
54846;DHT22;53889;50.084;8.646;2022-08-21T05:39:04;17.60;97.70
54846;DHT22;53889;50.084;8.646;2022-08-21T05:41:32;17.70;97.60
54846;DHT22;53889;50.084;8.646;2022-08-21T05:43:58;17.70;97.70
54846;DHT22;53889;50.084;8.646;2022-08-21T05:46:25;17.70;97.80
54846;DHT22;53889;50.084;8.646;2022-08-21T05:48:52;17.70;97.60
54846;DHT22;53889;50.084;8.646;2022-08-21T05:51:18;18.00;97.50
54846;DHT22;53889;50.084;8.646;2022-08-21T05:53:46;18.60;96.70
54846;DHT22;53889;50.084;8.646;2022-08-21T05:56:13;19.20;94.90
54846;DHT22;53889;50.084;8.646;2022-08-21T05:58:41;19.60;94.40
54846;DHT22;53889;50.084;8.646;2022-08-21T06:01:08;19.90;93.60
54846;DHT22;53889;50.084;8.646;2022-08-21T06:03:37;20.10;92.90
54846;DHT22;53889;50.084;8.646;2022-08-21T06:06:04;20.20;92.40
54846;DHT22;53889;50.084;8.646;2022-08-21T06:08:31;20.50;92.20
54846;DHT22;53889;50.084;8.646;2022-08-21T06:11:00;21.10;91.30
54846;DHT22;53889;50.084;8.646;2022-08-21T06:13:28;21.30;90.40
54846;DHT22;53889;50.084;8.646;2022-08-21T06:16:03;21.60;89.80
54846;DHT22;53889;50.084;8.646;2022-08-21T06:18:31;21.70;89.20
54846;DHT22;53889;50.084;8.646;2022-08-21T06:20:58;21.50;88.80
54846;DHT22;53889;50.084;8.646;2022-08-21T06:23:24;21.40;89.40
54846;DHT22;53889;50.084;8.646;2022-08-21T06:25:51;21.40;89.30
54846;DHT22;53889;50.084;8.646;2022-08-21T06:28:18;21.70;88.50
54846;DHT22;53889;50.084;8.646;2022-08-21T06:30:44;22.20;87.40
54846;DHT22;53889;50.084;8.646;2022-08-21T06:33:12;22.60;85.20
54846;DHT22;53889;50.084;8.646;2022-08-21T06:35:39;22.80;84.50
54846;DHT22;53889;50.084;8.646;2022-08-21T06:38:06;23.00;83.80
54846;DHT22;53889;50.084;8.646;2022-08-21T06:40:33;23.90;80.60
54846;DHT22;53889;50.084;8.646;2022-08-21T06:43:06;24.00;81.00
54846;DHT22;53889;50.084;8.646;2022-08-21T06:45:33;24.80;78.80
54846;DHT22;53889;50.084;8.646;2022-08-21T06:48:00;25.30;77.20
54846;DHT22;53889;50.084;8.646;2022-08-21T06:50:29;25.10;76.00
54846;DHT22;53889;50.084;8.646;2022-08-21T06:53:00;25.20;76.60
54846;DHT22;53889;50.084;8.646;2022-08-21T06:55:27;25.70;75.10
54846;DHT22;53889;50.084;8.646;2022-08-21T06:57:54;25.90;73.60
54846;DHT22;53889;50.084;8.646;2022-08-21T07:00:21;25.40;75.80
54846;DHT22;53889;50.084;8.646;2022-08-21T07:02:47;25.70;74.70
54846;DHT22;53889;50.084;8.646;2022-08-21T07:05:14;26.20;74.00
54846;DHT22;53889;50.084;8.646;2022-08-21T07:07:42;26.30;73.80
54846;DHT22;53889;50.084;8.646;2022-08-21T07:10:10;26.30;74.30
54846;DHT22;53889;50.084;8.646;2022-08-21T07:12:36;25.90;74.50
54846;DHT22;53889;50.084;8.646;2022-08-21T07:15:04;26.40;74.00
54846;DHT22;53889;50.084;8.646;2022-08-21T07:17:31;26.30;74.00
54846;DHT22;53889;50.084;8.646;2022-08-21T07:19:58;26.70;72.60
54846;DHT22;53889;50.084;8.646;2022-08-21T07:22:24;26.90;72.50
54846;DHT22;53889;50.084;8.646;2022-08-21T07:24:54;27.20;71.90
54846;DHT22;53889;50.084;8.646;2022-08-21T07:27:20;27.80;70.70
54846;DHT22;53889;50.084;8.646;2022-08-21T07:29:47;27.90;70.20
54846;DHT22;53889;50.084;8.646;2022-08-21T07:32:14;28.30;69.30
54846;DHT22;53889;50.084;8.646;2022-08-21T07:34:41;28.40;69.10
54846;DHT22;53889;50.084;8.646;2022-08-21T07:37:07;28.50;68.30
54846;DHT22;53889;50.084;8.646;2022-08-21T07:39:34;27.80;69.20
54846;DHT22;53889;50.084;8.646;2022-08-21T07:42:02;27.80;70.00
54846;DHT22;53889;50.084;8.646;2022-08-21T07:44:29;28.30;68.80
54846;DHT22;53889;50.084;8.646;2022-08-21T07:46:56;28.50;68.40
54846;DHT22;53889;50.084;8.646;2022-08-21T07:49:22;28.40;68.30
54846;DHT22;53889;50.084;8.646;2022-08-21T07:51:49;29.30;66.80
54846;DHT22;53889;50.084;8.646;2022-08-21T07:54:16;29.60;65.60
54846;DHT22;53889;50.084;8.646;2022-08-21T07:56:42;29.20;65.60
54846;DHT22;53889;50.084;8.646;2022-08-21T07:59:10;29.50;65.30
54846;DHT22;53889;50.084;8.646;2022-08-21T08:01:37;30.20;64.20
54846;DHT22;53889;50.084;8.646;2022-08-21T08:04:04;30.40;63.10
54846;DHT22;53889;50.084;8.646;2022-08-21T08:06:31;30.20;63.50
54846;DHT22;53889;50.084;8.646;2022-08-21T08:08:57;30.70;62.60
54846;DHT22;53889;50.084;8.646;2022-08-21T08:11:24;31.10;61.80
54846;DHT22;53889;50.084;8.646;2022-08-21T08:13:51;31.30;61.20
54846;DHT22;53889;50.084;8.646;2022-08-21T08:16:19;30.90;61.20
54846;DHT22;53889;50.084;8.646;2022-08-21T08:18:46;30.70;61.80
54846;DHT22;53889;50.084;8.646;2022-08-21T08:21:13;30.80;61.60
54846;DHT22;53889;50.084;8.646;2022-08-21T08:23:40;30.50;62.20
54846;DHT22;53889;50.084;8.646;2022-08-21T08:26:07;30.10;62.40
54846;DHT22;53889;50.084;8.646;2022-08-21T08:28:33;30.10;63.10
54846;DHT22;53889;50.084;8.646;2022-08-21T08:31:01;30.00;62.80
54846;DHT22;53889;50.084;8.646;2022-08-21T08:33:29;29.50;63.80
54846;DHT22;53889;50.084;8.646;2022-08-21T08:35:56;29.90;63.20
54846;DHT22;53889;50.084;8.646;2022-08-21T08:38:24;30.10;63.10
54846;DHT22;53889;50.084;8.646;2022-08-21T08:40:55;30.40;61.90
54846;DHT22;53889;50.084;8.646;2022-08-21T08:43:26;30.60;62.10
54846;DHT22;53889;50.084;8.646;2022-08-21T08:45:54;30.60;60.10
54846;DHT22;53889;50.084;8.646;2022-08-21T08:48:37;31.00;60.60
54846;DHT22;53889;50.084;8.646;2022-08-21T08:51:09;30.50;62.20
54846;DHT22;53889;50.084;8.646;2022-08-21T08:53:47;31.00;61.10
54846;DHT22;53889;50.084;8.646;2022-08-21T08:56:19;31.20;60.40
54846;DHT22;53889;50.084;8.646;2022-08-21T08:58:48;32.10;59.70
54846;DHT22;53889;50.084;8.646;2022-08-21T09:01:19;31.90;56.90
54846;DHT22;53889;50.084;8.646;2022-08-21T09:03:49;31.20;55.90
54846;DHT22;53889;50.084;8.646;2022-08-21T09:06:29;29.90;57.90
54846;DHT22;53889;50.084;8.646;2022-08-21T09:09:04;28.70;60.50
54846;DHT22;53889;50.084;8.646;2022-08-21T09:11:41;28.20;61.40
54846;DHT22;53889;50.084;8.646;2022-08-21T09:14:19;28.80;60.50
54846;DHT22;53889;50.084;8.646;2022-08-21T09:16:54;28.50;61.20
54846;DHT22;53889;50.084;8.646;2022-08-21T09:19:32;29.00;60.50
54846;DHT22;53889;50.084;8.646;2022-08-21T09:22:08;30.10;59.10
54846;DHT22;53889;50.084;8.646;2022-08-21T09:24:47;31.00;58.30
54846;DHT22;53889;50.084;8.646;2022-08-21T09:27:18;31.10;56.40
54846;DHT22;53889;50.084;8.646;2022-08-21T09:29:49;31.00;56.30
54846;DHT22;53889;50.084;8.646;2022-08-21T09:32:20;30.20;57.80
54846;DHT22;53889;50.084;8.646;2022-08-21T09:35:01;28.90;59.90
54846;DHT22;53889;50.084;8.646;2022-08-21T09:37:30;28.20;61.80
54846;DHT22;53889;50.084;8.646;2022-08-21T09:39:58;28.20;61.50
54846;DHT22;53889;50.084;8.646;2022-08-21T09:42:27;28.70;60.60
54846;DHT22;53889;50.084;8.646;2022-08-21T09:45:11;29.30;58.90
54846;DHT22;53889;50.084;8.646;2022-08-21T09:47:39;30.10;56.60
54846;DHT22;53889;50.084;8.646;2022-08-21T09:50:13;30.40;55.00
54846;DHT22;53889;50.084;8.646;2022-08-21T09:52:46;30.90;54.20
54846;DHT22;53889;50.084;8.646;2022-08-21T09:55:25;31.50;52.70
54846;DHT22;53889;50.084;8.646;2022-08-21T09:58:12;31.30;53.20
54846;DHT22;53889;50.084;8.646;2022-08-21T10:00:40;32.60;51.10
54846;DHT22;53889;50.084;8.646;2022-08-21T10:03:13;32.60;51.50
54846;DHT22;53889;50.084;8.646;2022-08-21T10:05:51;32.30;51.20
54846;DHT22;53889;50.084;8.646;2022-08-21T10:08:19;32.10;51.20
54846;DHT22;53889;50.084;8.646;2022-08-21T10:10:50;30.50;52.80
54846;DHT22;53889;50.084;8.646;2022-08-21T10:13:21;30.50;53.40
54846;DHT22;53889;50.084;8.646;2022-08-21T10:15:56;30.80;53.40
54846;DHT22;53889;50.084;8.646;2022-08-21T10:18:29;30.90;52.90
54846;DHT22;53889;50.084;8.646;2022-08-21T10:21:04;31.30;52.90
54846;DHT22;53889;50.084;8.646;2022-08-21T10:23:43;31.30;52.90
54846;DHT22;53889;50.084;8.646;2022-08-21T10:26:30;30.80;53.50
54846;DHT22;53889;50.084;8.646;2022-08-21T10:29:03;31.10;52.80
54846;DHT22;53889;50.084;8.646;2022-08-21T10:31:49;31.00;53.50
54846;DHT22;53889;50.084;8.646;2022-08-21T10:34:26;31.10;53.00
54846;DHT22;53889;50.084;8.646;2022-08-21T10:37:10;31.70;52.10
54846;DHT22;53889;50.084;8.646;2022-08-21T10:39:51;32.60;51.50
54846;DHT22;53889;50.084;8.646;2022-08-21T10:42:28;33.30;50.10
54846;DHT22;53889;50.084;8.646;2022-08-21T10:45:14;32.70;50.70
54846;DHT22;53889;50.084;8.646;2022-08-21T10:47:46;33.10;50.30
54846;DHT22;53889;50.084;8.646;2022-08-21T10:50:19;34.00;48.90
54846;DHT22;53889;50.084;8.646;2022-08-21T10:53:03;34.00;48.60
54846;DHT22;53889;50.084;8.646;2022-08-21T10:55:34;34.20;48.50
54846;DHT22;53889;50.084;8.646;2022-08-21T10:58:05;33.90;48.60
54846;DHT22;53889;50.084;8.646;2022-08-21T11:00:40;33.00;49.00
54846;DHT22;53889;50.084;8.646;2022-08-21T11:03:12;32.60;49.30
54846;DHT22;53889;50.084;8.646;2022-08-21T11:05:43;32.20;49.70
54846;DHT22;53889;50.084;8.646;2022-08-21T11:08:15;31.90;50.30
54846;DHT22;53889;50.084;8.646;2022-08-21T11:10:47;32.50;49.20
54846;DHT22;53889;50.084;8.646;2022-08-21T11:13:19;32.50;49.70
54846;DHT22;53889;50.084;8.646;2022-08-21T11:15:54;32.60;48.80
54846;DHT22;53889;50.084;8.646;2022-08-21T11:18:26;31.90;48.70
54846;DHT22;53889;50.084;8.646;2022-08-21T11:21:01;31.90;48.60
54846;DHT22;53889;50.084;8.646;2022-08-21T11:23:37;31.80;49.40
54846;DHT22;53889;50.084;8.646;2022-08-21T11:26:09;31.80;50.00
54846;DHT22;53889;50.084;8.646;2022-08-21T11:28:41;32.00;49.70
54846;DHT22;53889;50.084;8.646;2022-08-21T11:31:23;32.80;49.10
54846;DHT22;53889;50.084;8.646;2022-08-21T11:34:03;32.40;49.30
54846;DHT22;53889;50.084;8.646;2022-08-21T11:36:37;32.60;48.90
54846;DHT22;53889;50.084;8.646;2022-08-21T11:39:21;32.40;48.20
54846;DHT22;53889;50.084;8.646;2022-08-21T11:41:56;32.40;48.50
54846;DHT22;53889;50.084;8.646;2022-08-21T11:44:30;32.60;48.40
54846;DHT22;53889;50.084;8.646;2022-08-21T11:47:08;32.60;48.20
54846;DHT22;53889;50.084;8.646;2022-08-21T11:50:02;32.60;47.70
54846;DHT22;53889;50.084;8.646;2022-08-21T11:52:37;32.30;47.90
54846;DHT22;53889;50.084;8.646;2022-08-21T11:55:12;32.80;47.20
54846;DHT22;53889;50.084;8.646;2022-08-21T11:57:49;31.20;48.70
54846;DHT22;53889;50.084;8.646;2022-08-21T12:00:19;31.40;49.50
54846;DHT22;53889;50.084;8.646;2022-08-21T12:02:50;31.90;48.90
54846;DHT22;53889;50.084;8.646;2022-08-21T12:05:33;30.90;49.20
54846;DHT22;53889;50.084;8.646;2022-08-21T12:08:06;30.20;49.80
54846;DHT22;53889;50.084;8.646;2022-08-21T12:10:38;28.70;51.70
54846;DHT22;53889;50.084;8.646;2022-08-21T12:13:08;29.40;51.50
54846;DHT22;53889;50.084;8.646;2022-08-21T12:15:37;30.30;50.20
54846;DHT22;53889;50.084;8.646;2022-08-21T12:18:05;30.00;50.50
54846;DHT22;53889;50.084;8.646;2022-08-21T12:20:42;30.10;50.80
54846;DHT22;53889;50.084;8.646;2022-08-21T12:23:23;30.20;50.20
54846;DHT22;53889;50.084;8.646;2022-08-21T12:26:03;30.10;50.00
54846;DHT22;53889;50.084;8.646;2022-08-21T12:28:31;30.70;50.10
54846;DHT22;53889;50.084;8.646;2022-08-21T12:30:58;31.10;49.20
54846;DHT22;53889;50.084;8.646;2022-08-21T12:33:29;32.20;47.60
54846;DHT22;53889;50.084;8.646;2022-08-21T12:36:04;32.60;47.00
54846;DHT22;53889;50.084;8.646;2022-08-21T12:38:39;32.50;47.50
54846;DHT22;53889;50.084;8.646;2022-08-21T12:41:21;31.80;48.00
54846;DHT22;53889;50.084;8.646;2022-08-21T12:43:57;31.80;48.10
54846;DHT22;53889;50.084;8.646;2022-08-21T12:46:29;32.90;47.60
54846;DHT22;53889;50.084;8.646;2022-08-21T12:49:02;33.60;46.50
54846;DHT22;53889;50.084;8.646;2022-08-21T12:51:36;33.10;46.40
54846;DHT22;53889;50.084;8.646;2022-08-21T12:54:03;33.00;46.70
54846;DHT22;53889;50.084;8.646;2022-08-21T12:56:33;32.60;46.90
54846;DHT22;53889;50.084;8.646;2022-08-21T12:59:04;32.50;46.60
54846;DHT22;53889;50.084;8.646;2022-08-21T13:01:34;32.50;46.60
54846;DHT22;53889;50.084;8.646;2022-08-21T13:04:07;32.10;46.60
54846;DHT22;53889;50.084;8.646;2022-08-21T13:06:38;31.50;47.20
54846;DHT22;53889;50.084;8.646;2022-08-21T13:09:08;31.10;48.00
54846;DHT22;53889;50.084;8.646;2022-08-21T13:11:37;30.90;48.40
54846;DHT22;53889;50.084;8.646;2022-08-21T13:14:06;30.90;48.60
54846;DHT22;53889;50.084;8.646;2022-08-21T13:16:40;30.80;48.50
54846;DHT22;53889;50.084;8.646;2022-08-21T13:19:11;30.40;49.30
54846;DHT22;53889;50.084;8.646;2022-08-21T13:21:40;30.00;49.50
54846;DHT22;53889;50.084;8.646;2022-08-21T13:24:14;29.50;50.20
54846;DHT22;53889;50.084;8.646;2022-08-21T13:26:43;29.50;50.60
54846;DHT22;53889;50.084;8.646;2022-08-21T13:29:12;29.30;50.50
54846;DHT22;53889;50.084;8.646;2022-08-21T13:31:45;29.10;50.50
54846;DHT22;53889;50.084;8.646;2022-08-21T13:56:44;30.80;47.40
54846;DHT22;53889;50.084;8.646;2022-08-21T13:59:11;31.00;47.80
54846;DHT22;53889;50.084;8.646;2022-08-21T14:01:49;30.80;47.00
54846;DHT22;53889;50.084;8.646;2022-08-21T14:04:22;30.60;47.20
54846;DHT22;53889;50.084;8.646;2022-08-21T14:06:50;31.50;47.80
54846;DHT22;53889;50.084;8.646;2022-08-21T14:09:24;30.10;47.90
54846;DHT22;53889;50.084;8.646;2022-08-21T14:11:54;30.20;48.10
54846;DHT22;53889;50.084;8.646;2022-08-21T14:14:24;30.00;48.30
54846;DHT22;53889;50.084;8.646;2022-08-21T14:16:55;29.70;48.60
54846;DHT22;53889;50.084;8.646;2022-08-21T14:19:24;29.50;48.70
54846;DHT22;53889;50.084;8.646;2022-08-21T14:21:52;29.70;48.80
54846;DHT22;53889;50.084;8.646;2022-08-21T14:24:26;29.70;48.60
54846;DHT22;53889;50.084;8.646;2022-08-21T14:26:57;30.00;48.20
54846;DHT22;53889;50.084;8.646;2022-08-21T14:29:28;29.80;48.30
54846;DHT22;53889;50.084;8.646;2022-08-21T14:32:00;29.70;48.50
54846;DHT22;53889;50.084;8.646;2022-08-21T14:34:34;29.80;48.10
54846;DHT22;53889;50.084;8.646;2022-08-21T14:37:01;29.90;47.80
54846;DHT22;53889;50.084;8.646;2022-08-21T14:39:28;30.10;47.60
54846;DHT22;53889;50.084;8.646;2022-08-21T14:41:56;30.40;47.40
54846;DHT22;53889;50.084;8.646;2022-08-21T14:44:24;30.40;47.30
54846;DHT22;53889;50.084;8.646;2022-08-21T14:46:51;30.70;47.00
54846;DHT22;53889;50.084;8.646;2022-08-21T14:49:17;30.60;47.20
54846;DHT22;53889;50.084;8.646;2022-08-21T14:51:44;30.60;47.20
54846;DHT22;53889;50.084;8.646;2022-08-21T14:54:11;30.30;47.40
54846;DHT22;53889;50.084;8.646;2022-08-21T14:56:37;30.30;47.30
54846;DHT22;53889;50.084;8.646;2022-08-21T14:59:07;30.40;47.10
54846;DHT22;53889;50.084;8.646;2022-08-21T15:01:36;30.40;47.20
54846;DHT22;53889;50.084;8.646;2022-08-21T15:04:03;30.40;47.40
54846;DHT22;53889;50.084;8.646;2022-08-21T15:06:30;30.50;47.00
54846;DHT22;53889;50.084;8.646;2022-08-21T15:08:57;30.60;46.60
54846;DHT22;53889;50.084;8.646;2022-08-21T15:11:24;30.50;46.80
54846;DHT22;53889;50.084;8.646;2022-08-21T15:13:55;30.50;46.70
54846;DHT22;53889;50.084;8.646;2022-08-21T15:16:23;30.50;46.90
54846;DHT22;53889;50.084;8.646;2022-08-21T15:18:50;30.40;46.40
54846;DHT22;53889;50.084;8.646;2022-08-21T15:21:17;30.30;47.00
54846;DHT22;53889;50.084;8.646;2022-08-21T15:23:43;30.10;46.30
54846;DHT22;53889;50.084;8.646;2022-08-21T15:26:10;30.00;47.00
54846;DHT22;53889;50.084;8.646;2022-08-21T15:28:38;30.20;46.80
54846;DHT22;53889;50.084;8.646;2022-08-21T15:31:05;30.00;46.30
54846;DHT22;53889;50.084;8.646;2022-08-21T15:33:34;30.40;46.80
54846;DHT22;53889;50.084;8.646;2022-08-21T15:36:01;30.40;46.20
54846;DHT22;53889;50.084;8.646;2022-08-21T15:38:28;30.60;46.50
54846;DHT22;53889;50.084;8.646;2022-08-21T15:40:55;30.60;46.10
54846;DHT22;53889;50.084;8.646;2022-08-21T15:43:24;30.50;46.20
54846;DHT22;53889;50.084;8.646;2022-08-21T15:45:52;30.50;46.00
54846;DHT22;53889;50.084;8.646;2022-08-21T15:48:19;30.30;46.20
54846;DHT22;53889;50.084;8.646;2022-08-21T15:50:47;30.00;46.60
54846;DHT22;53889;50.084;8.646;2022-08-21T15:53:14;30.00;47.00
54846;DHT22;53889;50.084;8.646;2022-08-21T15:55:41;30.20;46.40
54846;DHT22;53889;50.084;8.646;2022-08-21T15:58:12;30.40;46.50
54846;DHT22;53889;50.084;8.646;2022-08-21T16:00:41;30.50;45.90
54846;DHT22;53889;50.084;8.646;2022-08-21T16:03:11;30.60;45.80
54846;DHT22;53889;50.084;8.646;2022-08-21T16:05:40;30.40;45.60
54846;DHT22;53889;50.084;8.646;2022-08-21T16:08:09;29.90;45.80